Time;durP1;ratioP1;P1;durP2;ratioP2;P2;SDS_P1;SDS_P2;PMS_P1;PMS_P2;Temp;Humidity;BMP_temperature;BMP_pressure;BME280_temperature;BME280_humidity;BME280_pressure;Samples;Min_cycle;Max_cycle;Signal;HPM_P1;HPM_P2
2021/03/08 00:00:49;;;;;;;42.20;27.55;;;3.40;99.90;;;;;;5033093;28;20028;-54
2021/03/08 00:03:15;;;;;;;41.25;29.67;;;3.60;99.90;;;;;;4998549;28;20037;-55
2021/03/08 00:05:41;;;;;;;55.70;35.28;;;3.70;99.90;;;;;;4998732;28;20037;-53
2021/03/08 00:08:07;;;;;;;66.05;38.38;;;3.90;99.90;;;;;;5032886;28;20040;-53
2021/03/08 00:10:33;;;;;;;52.22;31.17;;;4.00;99.90;;;;;;5032899;28;20041;-52
2021/03/08 00:12:59;;;;;;;43.08;29.27;;;4.10;99.90;;;;;;5033101;28;20052;-51
2021/03/08 00:15:24;;;;;;;45.53;31.67;;;4.00;99.90;;;;;;5032778;28;20483;-50
2021/03/08 00:17:51;;;;;;;69.57;42.35;;;3.90;99.90;;;;;;5032941;28;20057;-48
2021/03/08 00:20:21;;;;;;;55.53;34.92;;;3.90;99.90;;;;;;5032817;28;20029;-50
2021/03/08 00:22:47;;;;;;;49.10;31.58;;;4.00;99.90;;;;;;5034048;28;20547;-51
2021/03/08 00:25:17;;;;;;;45.88;29.08;;;4.10;99.90;;;;;;5001532;28;20042;-52
2021/03/08 00:27:43;;;;;;;49.50;31.77;;;4.20;99.90;;;;;;5035452;28;20483;-54
2021/03/08 00:30:10;;;;;;;63.15;43.22;;;4.20;99.90;;;;;;5037408;28;20061;-53
2021/03/08 00:32:36;;;;;;;52.35;35.13;;;4.00;99.90;;;;;;5036163;28;20439;-55
2021/03/08 00:35:03;;;;;;;89.97;57.33;;;3.70;99.90;;;;;;5001461;28;20033;-50
2021/03/08 00:37:32;;;;;;;70.72;45.83;;;3.70;99.90;;;;;;5036660;28;20048;-54
2021/03/08 00:39:59;;;;;;;65.03;43.35;;;3.80;99.90;;;;;;5036342;28;20357;-52
2021/03/08 00:42:25;;;;;;;63.60;41.00;;;3.70;99.90;;;;;;5036195;28;20026;-53
2021/03/08 00:44:52;;;;;;;68.60;42.22;;;3.70;99.90;;;;;;5036211;28;20029;-53
2021/03/08 00:47:18;;;;;;;70.88;46.67;;;3.80;99.90;;;;;;5036203;28;20104;-56
2021/03/08 00:49:43;;;;;;;56.92;38.00;;;3.80;99.90;;;;;;5036057;28;20052;-54
2021/03/08 00:52:09;;;;;;;60.13;39.33;;;3.90;99.90;;;;;;5035827;28;20030;-51
2021/03/08 00:54:35;;;;;;;58.70;38.50;;;3.90;99.90;;;;;;5035901;28;20036;-53
2021/03/08 00:57:00;;;;;;;60.42;40.15;;;4.00;99.90;;;;;;5035831;28;20456;-54
2021/03/08 00:59:26;;;;;;;59.40;40.03;;;4.00;99.90;;;;;;5035707;28;20524;-52
2021/03/08 01:01:52;;;;;;;58.28;38.85;;;4.00;99.90;;;;;;5035998;28;20029;-55
2021/03/08 01:04:17;;;;;;;54.08;38.30;;;4.00;99.90;;;;;;5001502;28;20029;-53
2021/03/08 01:06:43;;;;;;;61.90;39.80;;;4.00;99.90;;;;;;5035573;28;20026;-50
2021/03/08 01:09:08;;;;;;;55.40;36.70;;;4.10;99.90;;;;;;5035715;28;20025;-55
2021/03/08 01:11:37;;;;;;;56.08;36.70;;;4.10;99.80;;;;;;5035581;28;20564;-52
2021/03/08 01:14:03;;;;;;;59.80;39.88;;;4.10;99.80;;;;;;5001081;28;20053;-51
2021/03/08 01:16:29;;;;;;;67.25;45.28;;;4.00;99.40;;;;;;5035249;28;20052;-51
2021/03/08 01:18:54;;;;;;;52.00;35.83;;;3.90;99.60;;;;;;5035488;28;20472;-51
2021/03/08 01:21:21;;;;;;;52.30;35.97;;;3.80;99.90;;;;;;5035196;28;20038;-50
2021/03/08 01:23:46;;;;;;;60.22;38.88;;;3.60;99.90;;;;;;5035415;28;20044;-50
2021/03/08 01:26:12;;;;;;;73.18;48.55;;;3.50;99.90;;;;;;5035245;28;20026;-48
2021/03/08 01:28:37;;;;;;;88.38;57.75;;;3.60;99.90;;;;;;5035424;28;20104;-48
2021/03/08 01:31:03;;;;;;;58.97;38.90;;;3.50;99.90;;;;;;5035098;28;20033;-52
2021/03/08 01:33:29;;;;;;;92.13;55.65;;;3.50;99.90;;;;;;5035362;28;20064;-54
2021/03/08 01:35:55;;;;;;;272.55;162.65;;;3.50;99.90;;;;;;5034290;28;20461;-55
2021/03/08 01:38:20;;;;;;;134.00;80.70;;;3.10;99.90;;;;;;5035122;28;20021;-49
2021/03/08 01:40:46;;;;;;;141.57;86.53;;;3.20;99.90;;;;;;5035644;28;20022;-53
2021/03/08 01:43:13;;;;;;;98.57;62.70;;;3.40;99.90;;;;;;5035563;28;20480;-50
2021/03/08 01:45:40;;;;;;;84.07;51.85;;;3.50;99.90;;;;;;5034635;28;20502;-51
2021/03/08 01:48:06;;;;;;;80.90;52.22;;;3.50;99.90;;;;;;5034866;28;20059;-52
2021/03/08 01:50:44;;;;;;;79.43;50.08;;;3.60;99.90;;;;;;5034857;28;20117;-51
2021/03/08 01:53:11;;;;;;;87.38;52.10;;;3.70;99.90;;;;;;5034875;28;20029;-51
2021/03/08 01:55:37;;;;;;;79.25;51.00;;;3.70;99.90;;;;;;5035137;28;20025;-55
2021/03/08 01:58:03;;;;;;;59.53;37.70;;;3.70;99.90;;;;;;5034602;28;20041;-55
2021/03/08 02:00:30;;;;;;;56.03;36.72;;;3.60;99.80;;;;;;5034514;28;20028;-53
2021/03/08 02:02:57;;;;;;;57.30;37.13;;;3.50;99.90;;;;;;5032048;28;20064;-54
2021/03/08 02:05:29;;;;;;;54.83;37.10;;;3.20;99.90;;;;;;5034442;28;20040;-50
2021/03/08 02:07:55;;;;;;;55.35;34.85;;;3.20;99.90;;;;;;5035232;28;20120;-48
2021/03/08 02:10:23;;;;;;;38.05;25.42;;;3.10;99.90;;;;;;5034693;28;20117;-49
2021/03/08 02:12:52;;;;;;;33.15;21.40;;;3.00;99.90;;;;;;5034658;28;20049;-52
2021/03/08 02:15:55;;;;;;;29.20;19.48;;;2.80;99.90;;;;;;5034293;28;20022;-53
2021/03/08 02:18:29;;;;;;;;;;;2.80;99.90;;;;;;5034637;28;20120;-52
2021/03/08 02:21:06;;;;;;;21.95;16.25;;;;;;;;;;5034327;28;19999;-50
2021/03/08 02:24:09;;;;;;;20.63;15.38;;;2.60;99.90;;;;;;5034293;28;20037;-50
2021/03/08 02:26:38;;;;;;;;;;;2.30;99.90;;;;;;5034603;28;20037;-55
2021/03/08 02:29:37;;;;;;;21.88;13.60;;;1.60;99.90;;;;;;5034316;28;19909;-46
2021/03/08 02:32:05;;;;;;;19.60;14.00;;;;;;;;;;5034111;28;20029;-51
2021/03/08 02:34:37;;;;;;;19.67;14.38;;;0.90;99.90;;;;;;5033821;28;20029;-53
2021/03/08 02:37:16;;;;;;;21.73;15.77;;;0.60;99.90;;;;;;5033979;28;20157;-51
2021/03/08 02:39:45;;;;;;;25.60;18.20;;;0.80;99.90;;;;;;5034048;28;20045;-50
2021/03/08 02:42:21;;;;;;;23.08;16.23;;;1.30;99.90;;;;;;5030895;28;20040;-50
2021/03/08 02:44:48;;;;;;;27.23;18.60;;;1.70;99.90;;;;;;5034380;28;20030;-50
2021/03/08 02:47:17;;;;;;;40.17;24.85;;;2.10;99.90;;;;;;5033332;28;20086;-50
2021/03/08 02:49:46;;;;;;;31.80;22.48;;;2.20;99.90;;;;;;5033844;28;20045;-50
2021/03/08 02:52:12;;;;;;;33.63;21.42;;;;;;;;;;5033728;28;20021;-54
2021/03/08 02:54:41;;;;;;;30.02;21.35;;;;;;;;;;5033631;28;20480;-50
2021/03/08 02:57:09;;;;;;;41.97;26.10;;;2.70;99.90;;;;;;5033863;28;20026;-50
2021/03/08 02:59:42;;;;;;;44.20;26.15;;;;;;;;;;4999512;28;20483;-50
2021/03/08 03:02:09;;;;;;;54.10;31.50;;;2.90;99.90;;;;;;5033633;28;20377;-48
2021/03/08 03:04:38;;;;;;;41.88;25.63;;;2.80;99.90;;;;;;4999443;28;20065;-51
2021/03/08 03:07:06;;;;;;;44.70;25.27;;;2.90;99.90;;;;;;5033597;28;20025;-49
2021/03/08 03:09:36;;;;;;;38.20;24.08;;;3.00;99.90;;;;;;5033602;28;20040;-53
2021/03/08 03:12:03;;;;;;;33.67;21.88;;;3.10;99.90;;;;;;5033993;28;20033;-49
2021/03/08 03:14:30;;;;;;;35.45;22.70;;;3.10;99.90;;;;;;5033728;28;20109;-53
2021/03/08 03:17:03;;;;;;;31.90;20.38;;;3.00;99.90;;;;;;5033960;28;20395;-51
2021/03/08 03:19:31;;;;;;;25.70;18.55;;;2.90;99.90;;;;;;5033553;28;20453;-49
2021/03/08 03:22:00;;;;;;;25.92;18.77;;;3.00;99.90;;;;;;5033426;28;20376;-52
2021/03/08 03:24:27;;;;;;;27.65;19.67;;;3.10;99.90;;;;;;5033424;28;20040;-50
2021/03/08 03:26:53;;;;;;;28.17;19.45;;;2.90;99.90;;;;;;5033359;28;20087;-51
2021/03/08 03:29:20;;;;;;;27.92;19.40;;;2.80;99.90;;;;;;5033531;28;20037;-49
2021/03/08 03:31:46;;;;;;;32.22;19.90;;;2.80;99.90;;;;;;5033699;28;20026;-53
2021/03/08 03:34:13;;;;;;;26.90;17.70;;;2.80;99.90;;;;;;5033682;28;20080;-51
2021/03/08 03:36:42;;;;;;;25.83;18.25;;;2.80;99.90;;;;;;5033204;28;20049;-54
2021/03/08 03:39:10;;;;;;;25.55;19.63;;;2.90;99.90;;;;;;5033621;28;20026;-48
2021/03/08 03:41:37;;;;;;;29.17;18.90;;;2.90;99.90;;;;;;5033243;28;20025;-55
2021/03/08 03:44:03;;;;;;;25.83;18.13;;;3.10;99.90;;;;;;5033216;28;20034;-50
2021/03/08 03:46:29;;;;;;;24.17;18.02;;;3.10;99.90;;;;;;4999292;28;20044;-56
2021/03/08 03:48:55;;;;;;;22.42;17.20;;;3.10;99.90;;;;;;5033135;28;20384;-52
2021/03/08 03:51:21;;;;;;;24.70;17.50;;;3.00;99.90;;;;;;4998317;28;20396;-51
2021/03/08 03:53:47;;;;;;;24.50;17.05;;;3.00;99.90;;;;;;5033170;28;20025;-50
2021/03/08 03:56:15;;;;;;;25.77;16.70;;;3.00;99.90;;;;;;5033172;28;20060;-50
2021/03/08 03:59:17;;;;;;;25.20;18.35;;;2.80;99.90;;;;;;5033705;28;20084;-50
2021/03/08 04:01:59;;;;;;;29.13;19.55;;;2.90;99.90;;;;;;5036855;28;20025;-53
2021/03/08 04:04:47;;;;;;;30.45;20.58;;;2.80;99.90;;;;;;5036865;28;20099;-55
2021/03/08 04:07:14;;;;;;;29.15;19.88;;;2.50;99.90;;;;;;5036865;28;20415;-52
2021/03/08 04:09:45;;;;;;;27.90;19.15;;;2.20;99.90;;;;;;5036504;28;20044;-51
2021/03/08 04:12:11;;;;;;;27.92;19.60;;;2.30;99.90;;;;;;5036792;28;20108;-50
2021/03/08 04:14:40;;;;;;;28.02;21.13;;;1.80;99.90;;;;;;5036433;28;20044;-50
2021/03/08 04:17:06;;;;;;;28.13;20.95;;;;;;;;;;5037046;28;20033;-50
2021/03/08 04:19:34;;;;;;;27.30;20.40;;;1.80;99.90;;;;;;5036702;28;20028;-48
2021/03/08 04:22:05;;;;;;;28.50;19.40;;;1.20;99.90;;;;;;5036423;28;20503;-50
2021/03/08 04:24:32;;;;;;;24.00;18.15;;;1.20;99.90;;;;;;5036632;28;20025;-51
2021/03/08 04:27:00;;;;;;;23.38;17.02;;;1.40;99.90;;;;;;5036467;28;20025;-55
2021/03/08 04:29:26;;;;;;;34.10;22.88;;;1.50;99.90;;;;;;5036468;28;20037;-49
2021/03/08 04:31:52;;;;;;;57.30;32.22;;;1.70;99.90;;;;;;5037103;28;20036;-51
2021/03/08 04:34:19;;;;;;;47.78;27.67;;;2.00;99.90;;;;;;5036564;28;20029;-52
2021/03/08 04:36:45;;;;;;;54.88;29.13;;;2.10;99.90;;;;;;5036287;28;20056;-52
2021/03/08 04:39:12;;;;;;;51.78;28.55;;;2.20;99.90;;;;;;5036443;28;20379;-52
2021/03/08 04:41:38;;;;;;;57.10;29.83;;;2.20;99.90;;;;;;4999441;28;20115;-52
2021/03/08 04:44:07;;;;;;;59.05;30.52;;;2.40;99.90;;;;;;5036285;28;20175;-51
2021/03/08 04:46:33;;;;;;;53.22;29.55;;;2.50;99.90;;;;;;5000924;28;20146;-53
2021/03/08 04:49:00;;;;;;;38.47;23.77;;;2.50;99.90;;;;;;5035847;28;20026;-54
2021/03/08 04:51:29;;;;;;;35.75;21.67;;;2.50;99.90;;;;;;5035961;28;20075;-54
2021/03/08 04:53:56;;;;;;;29.33;19.75;;;2.50;99.90;;;;;;5035988;28;20021;-53
2021/03/08 04:56:23;;;;;;;29.95;20.10;;;2.80;99.90;;;;;;5035453;28;20033;-53
2021/03/08 04:58:48;;;;;;;28.70;19.85;;;2.70;99.90;;;;;;4986499;28;20047;-52
2021/03/08 05:01:15;;;;;;;28.13;19.48;;;2.70;99.90;;;;;;5035667;28;20108;-52
2021/03/08 05:03:43;;;;;;;37.60;25.20;;;2.70;99.90;;;;;;5035811;28;20030;-53
2021/03/08 05:06:10;;;;;;;31.27;21.73;;;2.70;99.90;;;;;;5035646;28;20034;-51
2021/03/08 05:08:39;;;;;;;38.58;22.63;;;2.80;99.90;;;;;;5035507;28;20439;-51
2021/03/08 05:11:07;;;;;;;28.08;21.02;;;2.90;99.90;;;;;;5016668;28;20393;-49
2021/03/08 05:13:35;;;;;;;32.28;22.08;;;2.90;99.90;;;;;;5035879;28;20065;-51
2021/03/08 05:16:02;;;;;;;35.42;22.35;;;2.80;99.90;;;;;;5035002;28;20033;-53
2021/03/08 05:18:30;;;;;;;28.98;20.40;;;2.80;99.90;;;;;;4996140;28;20466;-52
2021/03/08 05:20:57;;;;;;;34.88;22.92;;;2.50;99.90;;;;;;5016983;28;20026;-50
2021/03/08 05:23:23;;;;;;;33.17;21.27;;;2.70;99.90;;;;;;5017573;28;20116;-50
2021/03/08 05:25:50;;;;;;;41.33;26.15;;;2.80;99.90;;;;;;5034795;28;20120;-56
2021/03/08 05:28:17;;;;;;;77.38;44.13;;;2.80;99.90;;;;;;5035972;28;20111;-53
2021/03/08 05:30:43;;;;;;;88.25;41.83;;;3.00;99.90;;;;;;5034969;28;20469;-49
2021/03/08 05:33:22;;;;;;;66.65;38.03;;;2.90;99.90;;;;;;5035205;28;20056;-51
2021/03/08 05:35:54;;;;;;;60.83;33.13;;;3.00;99.90;;;;;;5035104;28;20408;-49
2021/03/08 05:38:21;;;;;;;;;;;3.10;99.90;;;;;;5001092;28;20044;-49
2021/03/08 05:40:53;;;;;;;46.47;25.63;;;;;;;;;;5034932;28;19911;-52
2021/03/08 05:43:19;;;;;;;;;;;;;;;;;;5035530;28;20029;-52
2021/03/08 05:45:56;;;;;;;32.97;20.95;;;;;;;;;;5034603;28;20284;-54
2021/03/08 05:48:41;;;;;;;35.47;24.65;;;;;;;;;;5033298;28;20061;-50
2021/03/08 05:51:22;;;;;;;44.33;25.77;;;3.30;99.90;;;;;;5034527;28;20045;-49
2021/03/08 05:54:12;;;;;;;57.53;30.48;;;3.40;99.90;;;;;;5034771;28;20022;-52
2021/03/08 05:57:02;;;;;;;65.32;42.03;;;3.20;99.90;;;;;;5034774;28;20075;-51
2021/03/08 05:59:46;;;;;;;61.33;38.60;;;3.40;99.90;;;;;;4999966;28;20063;-51
2021/03/08 06:02:30;;;;;;;56.13;38.58;;;3.50;99.90;;;;;;5000053;28;20118;-52
2021/03/08 06:05:17;;;;;;;56.22;35.00;;;3.60;99.90;;;;;;5034564;28;20060;-52
2021/03/08 06:08:21;;;;;;;49.17;32.35;;;3.60;99.90;;;;;;4999917;28;20041;-49
2021/03/08 06:11:06;;;;;;;44.17;29.50;;;3.70;99.90;;;;;;5034558;28;20044;-52
2021/03/08 06:13:51;;;;;;;44.40;30.60;;;3.80;99.90;;;;;;5034275;28;20033;-53
2021/03/08 06:16:24;;;;;;;48.05;33.83;;;4.10;99.90;;;;;;5034494;28;20033;-50
2021/03/08 06:18:52;;;;;;;61.35;42.53;;;4.30;99.90;;;;;;5034347;28;20031;-53
2021/03/08 06:21:19;;;;;;;104.32;68.90;;;4.60;99.90;;;;;;5034436;28;20147;-52
2021/03/08 06:23:46;;;;;;;115.45;80.70;;;4.80;99.90;;;;;;5034253;28;20029;-52
2021/03/08 06:26:13;;;;;;;121.40;82.03;;;5.00;99.90;;;;;;4999565;28;20041;-52
2021/03/08 06:28:40;;;;;;;153.95;98.35;;;5.40;99.90;;;;;;5016194;28;20033;-53
2021/03/08 06:31:07;;;;;;;170.57;102.82;;;;;;;;;;5033680;28;20120;-49
2021/03/08 06:33:35;;;;;;;310.73;159.27;;;6.10;99.90;;;;;;5034072;28;20053;-49
2021/03/08 06:36:01;;;;;;;266.70;144.65;;;;;;;;;;5034153;28;20128;-50
2021/03/08 06:38:31;;;;;;;200.05;119.60;;;7.20;99.90;;;;;;5016602;28;20083;-50
2021/03/08 06:40:59;;;;;;;176.98;103.43;;;7.10;99.90;;;;;;5034059;28;20124;-50
2021/03/08 06:43:29;;;;;;;179.93;99.95;;;7.20;99.50;;;;;;5034124;28;20033;-49
2021/03/08 06:45:55;;;;;;;151.10;90.05;;;7.50;99.90;;;;;;5033810;28;20406;-51
2021/03/08 06:48:22;;;;;;;124.88;75.57;;;7.80;99.80;;;;;;5034369;28;20025;-54
2021/03/08 06:51:14;;;;;;;109.50;65.43;;;7.80;99.90;;;;;;5034052;28;20041;-54
2021/03/08 06:53:43;;;;;;;93.25;60.65;;;8.30;98.50;;;;;;5033807;28;20022;-50
2021/03/08 06:56:20;;;;;;;98.25;66.75;;;7.70;97.40;;;;;;5033870;28;20029;-49
2021/03/08 06:59:02;;;;;;;109.50;69.28;;;;;;;;;;4999393;28;20061;-50
2021/03/08 07:01:30;;;;;;;91.82;63.83;;;;;;;;;;5033505;28;20026;-52
2021/03/08 07:03:58;;;;;;;92.70;66.75;;;;;;;;;;5015797;28;20057;-50
2021/03/08 07:06:24;;;;;;;88.55;61.72;;;;;;;;;;5030845;28;20112;-50
2021/03/08 07:08:50;;;;;;;75.45;53.92;;;10.40;93.20;;;;;;5033485;28;20036;-49
2021/03/08 07:11:18;;;;;;;74.88;54.80;;;10.50;88.80;;;;;;5015101;28;20045;-51
2021/03/08 07:13:45;;;;;;;83.57;61.28;;;10.70;83.40;;;;;;5033469;28;20033;-52
2021/03/08 07:16:11;;;;;;;93.65;65.53;;;;;;;;;;5034334;28;20027;-53
2021/03/08 07:18:37;;;;;;;91.88;66.50;;;;;;;;;;5034423;28;20160;-48
2021/03/08 07:21:19;;;;;;;91.28;62.30;;;12.20;76.00;;;;;;5033815;28;20079;-50
2021/03/08 07:23:50;;;;;;;91.68;62.58;;;13.10;75.40;;;;;;5034066;28;20083;-51
2021/03/08 07:26:25;;;;;;;88.47;63.08;;;;;;;;;;5033611;28;20116;-52
2021/03/08 07:29:11;;;;;;;96.18;66.90;;;;;;;;;;5033565;28;20033;-51
2021/03/08 07:31:41;;;;;;;101.03;68.72;;;14.70;93.10;;;;;;5033204;28;20033;-48
2021/03/08 07:34:12;;;;;;;62.72;45.85;;;;;;;;;;5032186;28;20079;-50
2021/03/08 07:36:38;;;;;;;56.90;39.95;;;;;;;;;;5037072;28;20053;-50
2021/03/08 07:39:14;;;;;;;48.97;36.85;;;;;;;;;;5037423;28;20068;-49
2021/03/08 07:42:09;;;;;;;40.90;32.85;;;16.40;57.80;;;;;;5037348;28;20469;-53
2021/03/08 07:44:46;;;;;;;43.65;32.28;;;16.90;61.20;;;;;;5036985;28;20476;-51
2021/03/08 07:47:19;;;;;;;42.38;29.55;;;17.60;70.60;;;;;;5037142;28;20037;-50
2021/03/08 07:49:45;;;;;;;37.42;29.27;;;;;;;;;;4986311;28;20111;-51
2021/03/08 07:52:13;;;;;;;39.92;29.65;;;16.00;85.60;;;;;;5037317;28;20030;-54
2021/03/08 07:55:00;;;;;;;41.78;28.27;;;;;;;;;;5037391;28;20029;-51
2021/03/08 07:57:28;;;;;;;36.05;25.20;;;17.40;80.30;;;;;;5037396;28;20025;-49
2021/03/08 07:59:55;;;;;;;30.85;22.45;;;;;;;;;;5037130;28;20052;-48
2021/03/08 08:02:21;;;;;;;29.73;22.85;;;18.70;50.80;;;;;;5036833;28;20461;-52
2021/03/08 08:04:47;;;;;;;28.13;23.27;;;19.80;50.90;;;;;;5036793;28;20040;-52
2021/03/08 08:07:14;;;;;;;34.28;24.58;;;19.20;50.10;;;;;;5037109;28;20041;-51
2021/03/08 08:09:42;;;;;;;29.38;21.75;;;20.10;49.30;;;;;;5037215;28;20025;-48
2021/03/08 08:12:14;;;;;;;31.08;22.45;;;20.20;48.70;;;;;;5036957;28;20061;-48
2021/03/08 08:14:43;;;;;;;28.70;22.58;;;19.00;48.30;;;;;;5000910;28;20127;-49
2021/03/08 08:17:16;;;;;;;26.45;21.40;;;19.70;49.10;;;;;;5036603;28;20053;-48
2021/03/08 08:19:46;;;;;;;27.55;20.98;;;18.50;48.90;;;;;;4986409;28;20037;-50
2021/03/08 08:22:25;;;;;;;25.10;20.33;;;19.10;49.40;;;;;;5037344;28;20377;-46
2021/03/08 08:24:53;;;;;;;25.05;21.27;;;18.80;49.50;;;;;;5002088;28;20071;-47
2021/03/08 08:27:20;;;;;;;31.13;23.65;;;;;;;;;;5036606;28;20036;-49
2021/03/08 08:29:49;;;;;;;23.45;20.77;;;;;;;;;;5036913;28;20034;-49
2021/03/08 08:32:17;;;;;;;27.30;21.58;;;20.20;47.10;;;;;;5036647;28;20124;-46
2021/03/08 08:52:11;;;;;;;25.75;22.45;;;;;;;;;;5112257;27;20406;-47
2021/03/08 08:54:40;;;;;;;26.73;22.52;;;;;;;;;;5109923;28;20051;-50
2021/03/08 08:57:12;;;;;;;24.30;21.10;;;;;;;;;;5108295;28;20012;-49
2021/03/08 08:59:48;;;;;;;23.80;20.38;;;;;;;;;;5092570;28;20090;-49
2021/03/08 09:02:26;;;;;;;26.33;20.77;;;20.70;83.30;;;;;;5106874;28;20111;-49
2021/03/08 09:04:51;;;;;;;23.83;19.98;;;21.60;78.10;;;;;;5102141;28;20032;-51
2021/03/08 09:07:18;;;;;;;29.27;20.00;;;;;;;;;;5111270;28;20481;-47
2021/03/08 09:09:48;;;;;;;24.65;20.05;;;;;;;;;;5110888;28;20034;-47
2021/03/08 09:12:27;;;;;;;25.42;21.35;;;21.70;80.90;;;;;;5110956;28;20481;-50
2021/03/08 09:14:54;;;;;;;24.95;20.77;;;;;;;;;;5098530;28;20122;-52
2021/03/08 09:17:32;;;;;;;23.83;20.05;;;21.00;63.00;;;;;;5096284;28;20031;-50
2021/03/08 09:19:57;;;;;;;26.27;19.65;;;21.50;56.50;;;;;;5069439;28;20032;-48
2021/03/08 09:22:23;;;;;;;25.92;18.35;;;21.50;65.20;;;;;;5034909;28;20067;-48
2021/03/08 09:24:52;;;;;;;23.55;19.58;;;22.20;44.00;;;;;;5067977;28;20029;-51
2021/03/08 09:27:26;;;;;;;24.02;20.25;;;;;;;;;;5068052;28;20578;-47
2021/03/08 09:29:53;;;;;;;22.30;19.05;;;21.90;83.90;;;;;;5068063;28;20032;-51
2021/03/08 09:32:19;;;;;;;20.35;18.08;;;21.90;43.40;;;;;;5067921;28;20016;-47
2021/03/08 09:34:45;;;;;;;20.25;17.95;;;20.90;44.10;;;;;;5068567;28;20036;-49
2021/03/08 09:37:12;;;;;;;25.73;19.45;;;21.40;43.30;;;;;;5067762;28;20028;-47
2021/03/08 09:39:53;;;;;;;22.40;19.20;;;21.60;44.00;;;;;;5067737;28;20036;-50
2021/03/08 09:42:19;;;;;;;30.20;22.05;;;;;;;;;;5051504;28;20033;-49
2021/03/08 09:44:46;;;;;;;21.63;18.83;;;22.40;43.00;;;;;;5067961;28;20040;-48
2021/03/08 09:47:12;;;;;;;20.00;17.90;;;22.00;42.40;;;;;;5067590;28;20482;-51
2021/03/08 09:49:56;;;;;;;21.83;19.50;;;21.70;42.80;;;;;;5034527;28;20610;-50
2021/03/08 09:52:39;;;;;;;21.27;16.30;;;19.90;42.30;;;;;;5079491;28;20040;-51
2021/03/08 09:55:08;;;;;;;22.05;19.58;;;20.50;43.00;;;;;;5076660;28;20386;-50
2021/03/08 09:57:39;;;;;;;20.33;18.23;;;20.50;41.40;;;;;;5076194;28;20020;-51
2021/03/08 10:00:19;;;;;;;16.95;15.02;;;20.90;43.00;;;;;;5076004;28;20502;-51
2021/03/08 10:02:45;;;;;;;17.15;14.43;;;21.60;41.50;;;;;;5076398;28;20119;-48
2021/03/08 10:05:13;;;;;;;16.80;15.05;;;22.20;41.10;;;;;;5076127;28;20382;-50
2021/03/08 10:07:54;;;;;;;15.23;13.63;;;22.40;40.50;;;;;;5076027;28;20028;-47
2021/03/08 10:10:21;;;;;;;13.85;12.43;;;21.50;39.40;;;;;;5074515;28;20064;-51
2021/03/08 10:12:57;;;;;;;16.75;13.73;;;21.60;38.80;;;;;;5075916;28;20020;-50
2021/03/08 10:15:23;;;;;;;15.50;12.88;;;19.70;39.10;;;;;;5079060;28;20050;-50
2021/03/08 10:18:07;;;;;;;13.52;12.02;;;19.60;40.10;;;;;;5080813;28;20037;-48
2021/03/08 10:20:33;;;;;;;18.55;13.77;;;;;;;;;;5076113;28;20547;-50
2021/03/08 10:22:59;;;;;;;14.55;12.75;;;19.30;41.00;;;;;;5085956;28;20031;-50
2021/03/08 10:25:31;;;;;;;14.50;12.77;;;19.40;42.10;;;;;;5080363;28;20036;-48
2021/03/08 10:27:58;;;;;;;13.35;11.95;;;20.30;40.20;;;;;;5076010;28;20025;-50
2021/03/08 10:30:26;;;;;;;14.35;12.70;;;20.60;39.20;;;;;;5075856;28;20532;-50
2021/03/08 10:33:03;;;;;;;12.73;11.40;;;20.40;40.00;;;;;;5075661;28;20052;-49
2021/03/08 10:35:39;;;;;;;14.30;12.60;;;20.70;39.70;;;;;;5075971;28;20029;-46
2021/03/08 10:38:05;;;;;;;15.05;12.02;;;20.80;39.50;;;;;;5075874;28;20115;-47
2021/03/08 10:40:32;;;;;;;12.68;11.38;;;21.00;38.80;;;;;;5075447;28;20063;-47
2021/03/08 10:42:58;;;;;;;14.77;11.52;;;;;;;;;;5075734;28;20474;-49
2021/03/08 10:45:25;;;;;;;13.25;11.93;;;21.40;38.20;;;;;;5075934;28;20025;-50
2021/03/08 10:48:11;;;;;;;13.23;11.88;;;21.30;38.50;;;;;;5075344;28;20028;-48
2021/03/08 10:50:43;;;;;;;14.63;11.45;;;21.90;38.60;;;;;;5075368;28;20510;-48
2021/03/08 10:53:11;;;;;;;13.52;12.13;;;21.30;38.70;;;;;;5075301;28;20025;-47
2021/03/08 10:55:37;;;;;;;16.27;12.43;;;21.90;38.90;;;;;;5075550;28;20028;-49
2021/03/08 10:58:03;;;;;;;13.68;11.75;;;22.50;39.90;;;;;;5075050;28;20024;-47
2021/03/08 11:00:32;;;;;;;19.02;13.30;;;22.60;38.20;;;;;;5075745;28;20025;-51
2021/03/08 11:03:01;;;;;;;12.77;11.30;;;22.90;39.50;;;;;;5074460;28;20517;-48
2021/03/08 11:05:32;;;;;;;13.35;11.23;;;;;;;;;;5075852;28;20024;-46
2021/03/08 11:08:00;;;;;;;12.77;11.55;;;23.00;36.70;;;;;;5075205;28;20027;-49
2021/03/08 11:10:36;;;;;;;13.40;12.00;;;;;;;;;;5075432;28;20033;-49
2021/03/08 11:13:06;;;;;;;97.28;42.47;;;23.20;61.30;;;;;;5075079;28;20170;-50
2021/03/08 11:15:32;;;;;;;14.90;12.23;;;22.50;37.90;;;;;;5074782;28;20499;-48
2021/03/08 11:17:58;;;;;;;64.28;27.85;;;22.50;38.20;;;;;;5073400;28;20119;-50
2021/03/08 11:20:26;;;;;;;71.95;31.73;;;22.20;39.10;;;;;;5074688;28;20112;-47
2021/03/08 11:23:04;;;;;;;14.40;12.50;;;20.80;39.00;;;;;;5073388;28;20040;-48
2021/03/08 11:25:31;;;;;;;20.77;14.63;;;20.10;40.80;;;;;;5074861;28;20078;-47
2021/03/08 11:27:59;;;;;;;22.20;15.93;;;20.10;41.20;;;;;;5074778;28;20024;-49
2021/03/08 11:30:26;;;;;;;45.67;23.20;;;21.00;40.50;;;;;;5074697;28;20028;-50
2021/03/08 11:32:54;;;;;;;19.88;14.65;;;21.00;40.40;;;;;;5074789;28;20021;-47
2021/03/08 11:35:25;;;;;;;21.27;15.40;;;20.10;40.70;;;;;;5072839;28;20037;-46
2021/03/08 11:38:04;;;;;;;24.30;13.65;;;20.00;40.90;;;;;;5074634;28;20070;-49
2021/03/08 11:40:30;;;;;;;25.67;15.55;;;19.10;41.60;;;;;;5074032;28;20115;-50
2021/03/08 11:42:57;;;;;;;16.10;12.80;;;18.50;42.90;;;;;;5074562;28;20040;-46
2021/03/08 11:45:24;;;;;;;15.65;13.38;;;18.50;42.80;;;;;;5074814;28;20024;-47
2021/03/08 11:48:02;;;;;;;50.25;26.75;;;19.40;42.90;;;;;;5074407;28;20099;-50
2021/03/08 11:50:32;;;;;;;49.95;27.15;;;18.70;41.40;;;;;;5074029;28;20047;-51
2021/03/08 11:52:58;;;;;;;46.00;24.75;;;18.80;40.70;;;;;;5074071;28;20036;-52
2021/03/08 11:55:24;;;;;;;13.45;11.90;;;18.00;42.90;;;;;;5074778;28;20020;-50
2021/03/08 11:57:50;;;;;;;42.28;26.00;;;18.40;42.60;;;;;;5074012;28;20131;-47
2021/03/08 12:00:21;;;;;;;25.15;15.77;;;18.50;42.50;;;;;;5074076;28;20421;-50
2021/03/08 12:02:48;;;;;;;26.38;17.70;;;18.80;43.50;;;;;;5039052;28;20089;-48
2021/03/08 12:05:14;;;;;;;20.35;15.30;;;18.50;42.30;;;;;;5074210;28;20027;-47
2021/03/08 12:07:41;;;;;;;26.98;18.50;;;17.60;43.30;;;;;;5074187;28;20032;-47
2021/03/08 12:10:09;;;;;;;15.43;12.45;;;18.30;42.50;;;;;;5073886;28;20475;-46
2021/03/08 12:12:35;;;;;;;21.23;15.68;;;18.30;42.40;;;;;;5074607;28;20028;-48
2021/03/08 12:15:01;;;;;;;13.48;11.82;;;18.90;42.10;;;;;;5073822;28;20028;-48
2021/03/08 12:17:27;;;;;;;20.42;14.05;;;19.00;41.10;;;;;;5073753;28;20020;-49
2021/03/08 12:19:52;;;;;;;24.42;19.65;;;18.90;41.00;;;;;;5073829;28;20535;-48
2021/03/08 12:22:18;;;;;;;16.77;13.18;;;17.80;40.30;;;;;;5073658;28;20020;-47
2021/03/08 12:24:45;;;;;;;16.33;11.23;;;18.00;42.00;;;;;;5073569;28;20021;-51
2021/03/08 12:27:10;;;;;;;15.57;12.25;;;18.40;41.50;;;;;;5073929;28;20051;-52
2021/03/08 12:29:36;;;;;;;18.05;13.13;;;17.90;42.30;;;;;;5073755;28;20024;-49
2021/03/08 12:32:04;;;;;;;15.13;12.75;;;17.80;42.20;;;;;;5073827;28;20020;-50
2021/03/08 12:34:30;;;;;;;15.15;12.98;;;17.50;41.70;;;;;;5038719;28;20036;-48
2021/03/08 12:36:56;;;;;;;16.40;13.70;;;17.60;42.30;;;;;;5073858;28;20077;-49
2021/03/08 12:39:22;;;;;;;21.02;14.52;;;18.20;41.90;;;;;;5073378;28;20024;-50
2021/03/08 12:41:48;;;;;;;24.15;14.75;;;17.80;42.90;;;;;;5073577;28;20021;-47
2021/03/08 12:44:14;;;;;;;21.35;15.10;;;17.40;42.90;;;;;;5073752;28;20025;-49
2021/03/08 12:46:40;;;;;;;20.90;15.40;;;17.00;42.60;;;;;;5073703;28;20481;-49
2021/03/08 12:49:06;;;;;;;20.67;15.00;;;17.30;42.40;;;;;;5073744;28;20021;-50
2021/03/08 12:51:32;;;;;;;20.13;15.05;;;17.70;43.20;;;;;;5073425;28;20052;-50
2021/03/08 12:53:57;;;;;;;18.58;13.95;;;17.70;42.70;;;;;;5073669;28;20024;-46
2021/03/08 12:56:23;;;;;;;20.48;14.27;;;17.60;41.70;;;;;;5073555;28;20028;-51
2021/03/08 12:58:49;;;;;;;23.48;15.00;;;17.40;42.40;;;;;;5073643;28;20025;-49
2021/03/08 13:01:14;;;;;;;15.57;12.85;;;17.80;43.20;;;;;;5073238;28;20030;-50
2021/03/08 13:03:41;;;;;;;22.77;15.07;;;17.60;42.00;;;;;;5073277;28;20437;-51
2021/03/08 13:06:07;;;;;;;16.65;13.55;;;17.70;42.70;;;;;;5074036;28;20040;-51
2021/03/08 13:08:33;;;;;;;24.60;13.15;;;17.70;43.20;;;;;;5073550;28;20032;-50
2021/03/08 13:10:59;;;;;;;16.58;12.65;;;17.70;43.20;;;;;;5073322;28;20048;-48
2021/03/08 13:13:24;;;;;;;18.00;15.82;;;18.00;41.70;;;;;;5073464;28;20069;-49
2021/03/08 13:15:50;;;;;;;14.60;11.80;;;18.30;42.40;;;;;;5073443;28;20510;-50